createdAt,value
2017-04-09T00:01:56.500Z,75.30
2017-04-09T00:02:57.446Z,75.20
2017-04-09T00:03:57.737Z,75.50
2017-04-09T00:04:57.276Z,75.40
2017-04-09T00:05:56.816Z,75.40
2017-04-09T00:06:56.412Z,75.40
2017-04-09T00:07:56.083Z,75.50
2017-04-09T00:08:56.411Z,75.40
2017-04-09T00:09:56.128Z,75.00
2017-04-09T00:10:55.779Z,75.80
2017-04-09T00:11:55.433Z,75.10
2017-04-09T00:12:55.148Z,75.00
2017-04-09T00:13:55.444Z,75.10
2017-04-09T00:14:55.009Z,75.20
2017-04-09T00:15:54.783Z,75.20
2017-04-09T00:16:54.531Z,75.20
2017-04-09T00:17:54.083Z,75.30
2017-04-09T00:18:53.740Z,75.80
2017-04-09T00:19:53.359Z,76.10
2017-04-09T00:21:52.768Z,77.20
2017-04-09T00:22:53.091Z,76.50
2017-04-09T00:23:52.624Z,76.40
2017-04-09T00:24:52.200Z,76.10
2017-04-09T00:25:51.732Z,76.10
2017-04-09T00:26:51.319Z,76.20
2017-04-09T00:27:50.867Z,76.50
2017-04-09T00:28:51.143Z,76.60
2017-04-09T00:29:50.799Z,76.40
2017-04-09T00:30:50.371Z,76.40
2017-04-09T00:31:50.683Z,76.40
2017-04-09T00:32:50.982Z,76.40
2017-04-09T00:33:50.875Z,76.60
2017-04-09T00:34:50.533Z,76.70
2017-04-09T00:35:50.131Z,76.60
2017-04-09T00:36:49.724Z,76.60
2017-04-09T00:37:49.651Z,76.70
2017-04-09T00:38:49.718Z,76.50
2017-04-09T00:39:50.072Z,76.40
2017-04-09T00:40:49.648Z,76.30
2017-04-09T00:41:49.385Z,76.30
2017-04-09T00:42:49.119Z,76.30
2017-04-09T00:43:49.417Z,76.60
2017-04-09T00:44:48.982Z,76.50
2017-04-09T00:45:48.598Z,76.30
2017-04-09T00:46:48.447Z,76.40
2017-04-09T00:47:48.987Z,76.40
2017-04-09T00:48:48.533Z,76.60
2017-04-09T00:49:48.075Z,76.30
2017-04-09T00:50:47.667Z,76.70
2017-04-09T00:51:47.236Z,76.60
2017-04-09T00:52:46.788Z,76.60
2017-04-09T00:53:46.568Z,76.60
2017-04-09T00:54:46.123Z,76.50
2017-04-09T00:55:45.710Z,76.70
2017-04-09T00:56:45.343Z,76.90
2017-04-09T00:57:45.681Z,77.10
2017-04-09T00:58:45.356Z,77.20
2017-04-09T00:59:45.715Z,77.30
2017-04-09T01:00:45.745Z,77.60
2017-04-09T01:01:45.366Z,77.50
2017-04-09T01:04:45.378Z,78.30
2017-04-09T01:05:44.911Z,77.80
2017-04-09T01:06:45.191Z,77.70
2017-04-09T01:07:45.088Z,77.80
2017-04-09T01:08:45.228Z,77.70
2017-04-09T01:09:45.628Z,77.70
2017-04-09T01:10:45.268Z,77.90
2017-04-09T01:11:44.874Z,77.90
2017-04-09T01:12:44.628Z,77.90
2017-04-09T01:13:44.927Z,77.70
2017-04-09T01:14:44.467Z,77.70
2017-04-09T01:15:44.046Z,77.90
2017-04-09T01:16:44.391Z,78.00
2017-04-09T01:17:44.452Z,78.30
2017-04-09T01:18:44.049Z,78.30
2017-04-09T01:19:43.815Z,78.20
2017-04-09T01:20:43.439Z,78.40
2017-04-09T01:21:43.412Z,78.50
2017-04-09T01:22:43.328Z,78.60
2017-04-09T01:23:43.044Z,78.40
2017-04-09T01:24:42.636Z,78.30
2017-04-09T01:25:42.367Z,78.30
2017-04-09T01:26:42.843Z,78.20
2017-04-09T01:27:42.549Z,78.30
2017-04-09T01:28:42.130Z,78.30
2017-04-09T01:29:42.244Z,78.30
2017-04-09T01:30:42.156Z,78.20
2017-04-09T01:31:41.755Z,78.10
2017-04-09T01:32:41.388Z,78.00
2017-04-09T01:34:40.903Z,77.70
2017-04-09T01:35:41.280Z,78.50
2017-04-09T01:36:41.618Z,77.80
2017-04-09T01:38:41.919Z,77.90
2017-04-09T01:39:41.510Z,78.10
2017-04-09T01:40:41.147Z,78.20
2017-04-09T01:41:40.752Z,78.30
2017-04-09T01:42:41.127Z,78.30
2017-04-09T01:43:40.764Z,78.30
2017-04-09T01:44:41.164Z,78.40
2017-04-09T01:46:40.540Z,78.40
2017-04-09T01:47:40.968Z,78.40
2017-04-09T01:48:40.588Z,78.60
2017-04-09T01:50:40.727Z,78.80
2017-04-09T01:51:41.623Z,78.90
2017-04-09T01:52:41.184Z,78.90
2017-04-09T01:53:41.199Z,78.90
2017-04-09T01:54:40.787Z,79.00
2017-04-09T01:55:40.349Z,79.20
2017-04-09T01:56:40.659Z,79.50
2017-04-09T01:57:40.987Z,79.30
2017-04-09T01:58:40.547Z,79.40
2017-04-09T01:59:40.060Z,79.30
2017-04-09T02:01:39.577Z,79.30
2017-04-09T02:02:39.859Z,79.20
2017-04-09T02:03:39.543Z,79.10
2017-04-09T02:04:39.155Z,78.90
2017-04-09T02:05:38.679Z,78.90
2017-04-09T02:06:39.199Z,78.90
2017-04-09T02:07:39.651Z,79.10
2017-04-09T02:08:39.253Z,79.20
2017-04-09T02:09:39.198Z,79.30
2017-04-09T02:10:38.848Z,79.60
2017-04-09T02:11:38.808Z,79.80
2017-04-09T02:12:38.365Z,80.10
2017-04-09T02:13:37.926Z,80.40
2017-04-09T02:14:38.333Z,80.50
2017-04-09T02:15:38.615Z,80.20
2017-04-09T02:16:38.213Z,80.30
2017-04-09T02:17:37.799Z,80.50
2017-04-09T02:18:37.387Z,80.60
2017-04-09T02:19:37.143Z,80.50
2017-04-09T02:20:37.788Z,80.50
2017-04-09T02:21:37.385Z,80.60
2017-04-09T02:22:37.063Z,80.50
2017-04-09T02:23:37.383Z,80.30
2017-04-09T02:24:37.703Z,80.30
2017-04-09T02:25:37.999Z,80.50
2017-04-09T02:26:37.603Z,80.70
2017-04-09T02:28:37.032Z,80.40
2017-04-09T02:29:36.603Z,80.30
2017-04-09T02:30:36.919Z,80.40
2017-04-09T02:31:37.239Z,80.40
2017-04-09T02:32:37.833Z,80.30
2017-04-09T02:33:37.406Z,80.50
2017-04-09T02:34:37.115Z,80.50
2017-04-09T02:35:36.685Z,80.60
2017-04-09T02:36:36.258Z,80.70
2017-04-09T02:37:36.519Z,80.80
2017-04-09T02:38:36.219Z,81.00
2017-04-09T02:39:35.771Z,81.10
2017-04-09T02:40:36.475Z,81.20
2017-04-09T02:42:35.823Z,81.20
2017-04-09T02:43:35.408Z,81.30
2017-04-09T02:44:35.182Z,81.30
2017-04-09T02:45:35.540Z,81.30
2017-04-09T02:46:35.156Z,81.30
2017-04-09T02:47:35.931Z,81.50
2017-04-09T02:48:36.312Z,81.40
2017-04-09T02:49:35.887Z,81.30
2017-04-09T02:50:35.466Z,81.10
2017-04-09T02:51:35.040Z,81.00
2017-04-09T02:52:34.819Z,81.10
2017-04-09T02:53:35.489Z,81.10
2017-04-09T02:54:35.955Z,81.30
2017-04-09T02:55:35.530Z,81.40
2017-04-09T02:56:35.111Z,81.70
2017-04-09T02:57:34.924Z,81.80
2017-04-09T02:58:34.564Z,82.00
2017-04-09T02:59:34.873Z,82.20
2017-04-09T03:00:35.540Z,82.10
2017-04-09T03:01:35.137Z,81.70
2017-04-09T03:02:34.771Z,81.60
2017-04-09T03:03:34.321Z,81.50
2017-04-09T03:04:34.105Z,81.50
2017-04-09T03:05:34.694Z,81.50
2017-04-09T03:06:34.234Z,81.40
2017-04-09T03:07:33.835Z,81.40
2017-04-09T03:08:33.428Z,81.40
2017-04-09T03:09:33.696Z,81.40
2017-04-09T03:10:33.283Z,81.20
2017-04-09T03:11:32.823Z,81.30
2017-04-09T03:12:33.438Z,81.20
2017-04-09T03:13:33.779Z,81.40
2017-04-09T03:14:33.348Z,81.70
2017-04-09T03:15:33.770Z,82.10
2017-04-09T03:16:34.243Z,81.60
2017-04-09T03:17:34.030Z,81.80
2017-04-09T03:18:35.028Z,81.60
2017-04-09T03:19:35.560Z,81.50
2017-04-09T03:20:35.151Z,81.70
2017-04-09T03:21:35.520Z,81.30
2017-04-09T03:22:35.080Z,81.40
2017-04-09T03:23:35.246Z,81.50
2017-04-09T03:24:35.539Z,81.50
2017-04-09T03:25:35.247Z,81.40
2017-04-09T03:26:35.512Z,82.20
2017-04-09T03:27:35.173Z,81.30
2017-04-09T03:28:35.402Z,81.30
2017-04-09T03:29:35.720Z,81.20
2017-04-09T03:30:36.064Z,81.20
2017-04-09T03:31:35.621Z,81.20
2017-04-09T03:32:35.309Z,81.30
2017-04-09T03:33:34.891Z,81.50
2017-04-09T03:34:34.528Z,81.70
2017-04-09T03:35:34.991Z,82.00
2017-04-09T03:36:34.584Z,82.10
2017-04-09T03:37:34.188Z,82.20
2017-04-09T03:38:33.757Z,82.30
2017-04-09T03:39:33.743Z,82.50
2017-04-09T03:40:34.063Z,82.50
2017-04-09T03:41:34.360Z,82.30
2017-04-09T03:43:33.880Z,82.60
2017-04-09T03:44:34.273Z,82.90
2017-04-09T03:45:33.851Z,82.80
2017-04-09T03:46:33.456Z,82.70
2017-04-09T03:47:33.593Z,82.60
2017-04-09T03:48:33.886Z,82.20
2017-04-09T03:49:33.495Z,82.20
2017-04-09T03:50:33.042Z,82.20
2017-04-09T03:51:32.612Z,82.00
2017-04-09T03:52:32.331Z,81.80
2017-04-09T03:53:32.800Z,81.90
2017-04-09T03:54:32.712Z,82.00
2017-04-09T03:55:32.274Z,82.20
2017-04-09T03:56:31.807Z,82.10
2017-04-09T03:57:31.520Z,82.30
2017-04-09T03:58:31.871Z,82.40
2017-04-09T03:59:31.432Z,82.50
2017-04-09T04:00:31.783Z,82.40
2017-04-09T04:01:31.382Z,82.50
2017-04-09T04:02:30.937Z,82.60
2017-04-09T04:03:31.291Z,82.70
2017-04-09T04:04:32.385Z,82.60
2017-04-09T04:05:32.708Z,83.10
2017-04-09T04:06:33.057Z,82.90
2017-04-09T04:07:32.740Z,83.00
2017-04-09T04:08:32.312Z,82.80
2017-04-09T04:10:32.948Z,82.70
2017-04-09T04:11:33.472Z,82.80
2017-04-09T04:12:33.799Z,82.90
2017-04-09T04:13:33.417Z,83.00
2017-04-09T04:14:33.003Z,83.10
2017-04-09T04:15:32.681Z,83.10
2017-04-09T04:16:36.656Z,82.80
2017-04-09T04:17:36.227Z,82.80
2017-04-09T04:18:35.787Z,82.90
2017-04-09T04:19:36.178Z,82.70
2017-04-09T04:20:36.587Z,82.50
2017-04-09T04:21:36.177Z,82.50
2017-04-09T04:22:36.608Z,82.60
2017-04-09T04:23:36.148Z,82.70
2017-04-09T04:24:35.915Z,82.90
2017-04-09T04:25:36.355Z,83.30
2017-04-09T04:26:35.915Z,83.10
2017-04-09T04:27:35.570Z,83.10
2017-04-09T04:28:35.165Z,83.10
2017-04-09T04:29:34.775Z,82.80
2017-04-09T04:30:34.841Z,82.60
2017-04-09T04:31:35.345Z,82.70
2017-04-09T04:33:35.435Z,82.90
2017-04-09T04:34:35.168Z,83.30
2017-04-09T04:35:34.740Z,83.20
2017-04-09T04:36:34.724Z,83.00
2017-04-09T04:37:34.243Z,82.70
2017-04-09T04:38:33.811Z,82.70
2017-04-09T04:39:33.397Z,82.70
2017-04-09T04:40:32.968Z,82.80
2017-04-09T04:41:33.276Z,82.90
2017-04-09T04:42:33.591Z,82.90
2017-04-09T04:43:33.881Z,83.10
2017-04-09T04:44:33.452Z,83.00
2017-04-09T04:45:32.994Z,83.70
2017-04-09T04:46:33.309Z,83.10
2017-04-09T04:47:33.748Z,82.90
2017-04-09T04:48:34.484Z,82.60
2017-04-09T04:49:34.203Z,82.80
2017-04-09T04:50:33.788Z,82.60
2017-04-09T04:51:33.396Z,82.70
2017-04-09T04:52:32.943Z,82.50
2017-04-09T04:54:32.467Z,83.40
2017-04-09T04:55:32.875Z,82.50
2017-04-09T04:56:33.184Z,82.50
2017-04-09T04:57:33.544Z,83.10
2017-04-09T04:58:33.109Z,83.50
2017-04-09T04:59:33.501Z,83.20
2017-04-09T05:01:32.852Z,83.10
2017-04-09T05:02:32.411Z,83.10
2017-04-09T05:03:32.750Z,83.30
2017-04-09T05:04:32.316Z,83.20
2017-04-09T05:05:32.633Z,82.80
2017-04-09T05:06:32.951Z,82.60
2017-04-09T05:07:33.467Z,82.20
2017-04-09T05:08:33.788Z,82.10
2017-04-09T05:09:34.267Z,82.10
2017-04-09T05:10:33.913Z,81.90
2017-04-09T05:11:34.182Z,81.70
2017-04-09T05:12:33.771Z,81.60
2017-04-09T05:13:33.318Z,81.70
2017-04-09T05:14:33.742Z,81.90
2017-04-09T05:15:33.337Z,82.10
2017-04-09T05:16:33.663Z,82.20
2017-04-09T05:17:33.340Z,81.90
2017-04-09T05:19:33.464Z,81.70
2017-04-09T05:20:33.763Z,81.70
2017-04-09T05:22:33.172Z,81.40
2017-04-09T05:23:33.511Z,81.50
2017-04-09T05:24:33.268Z,81.40
2017-04-09T05:25:32.983Z,81.50
2017-04-09T05:26:33.287Z,81.80
2017-04-09T05:27:33.076Z,82.10
2017-04-09T05:28:32.705Z,82.40
2017-04-09T05:29:33.071Z,82.80
2017-04-09T05:30:32.619Z,82.00
2017-04-09T05:31:32.935Z,81.80
2017-04-09T05:32:33.475Z,81.70
2017-04-09T05:33:33.165Z,81.60
2017-04-09T05:34:33.948Z,81.60
2017-04-09T05:35:33.504Z,81.60
2017-04-09T05:36:33.051Z,82.10
2017-04-09T05:37:32.613Z,81.30
2017-04-09T05:38:32.229Z,81.10
2017-04-09T05:39:31.811Z,81.00
2017-04-09T05:40:31.471Z,80.70
2017-04-09T05:41:31.787Z,80.40
2017-04-09T05:42:31.368Z,80.90
2017-04-09T05:46:31.289Z,81.60
2017-04-09T05:47:31.353Z,80.70
2017-04-09T05:48:31.085Z,81.00
2017-04-09T05:49:30.784Z,81.10
2017-04-09T05:50:30.518Z,81.30
2017-04-09T05:51:30.816Z,81.20
2017-04-09T05:52:31.996Z,81.30
2017-04-09T05:53:31.603Z,81.60
2017-04-09T05:54:31.246Z,81.20
2017-04-09T05:55:31.506Z,80.80
2017-04-09T05:56:31.058Z,81.00
2017-04-09T05:58:30.649Z,81.20
2017-04-09T05:59:30.237Z,81.10
2017-04-09T06:00:29.837Z,80.90
2017-04-09T06:01:29.439Z,80.70
2017-04-09T06:02:29.002Z,80.50
2017-04-09T06:03:29.051Z,80.30
2017-04-09T06:04:28.624Z,80.90
2017-04-09T06:05:28.271Z,80.50
2017-04-09T06:06:28.603Z,80.00
2017-04-09T06:07:28.264Z,80.30
2017-04-09T06:08:28.467Z,79.30
2017-04-09T06:09:28.055Z,79.50
2017-04-09T06:10:27.743Z,79.30
2017-04-09T06:11:27.311Z,79.50
2017-04-09T06:12:27.672Z,79.50
2017-04-09T06:13:27.277Z,79.40
2017-04-09T06:14:26.927Z,79.60
2017-04-09T06:15:26.469Z,79.90
2017-04-09T06:16:26.129Z,79.60
2017-04-09T06:17:25.677Z,80.00
2017-04-09T06:18:25.374Z,79.80
2017-04-09T06:19:24.936Z,79.40
2017-04-09T06:20:25.128Z,79.50
2017-04-09T06:21:24.887Z,79.70
2017-04-09T06:22:24.586Z,79.60
2017-04-09T06:23:24.175Z,79.80
2017-04-09T06:24:24.005Z,79.50
2017-04-09T06:25:24.296Z,79.60
2017-04-09T06:26:23.939Z,79.70
2017-04-09T06:27:24.349Z,79.50
2017-04-09T06:28:24.690Z,79.40
2017-04-09T06:29:24.368Z,79.40
2017-04-09T06:30:23.935Z,79.20
2017-04-09T06:31:23.488Z,79.40
2017-04-09T06:32:23.063Z,79.10
2017-04-09T06:33:22.715Z,79.10
2017-04-09T06:34:22.418Z,78.70
2017-04-09T06:35:22.019Z,78.80
2017-04-09T06:36:21.835Z,78.90
2017-04-09T06:37:22.159Z,78.80
2017-04-09T06:38:22.514Z,78.80
2017-04-09T06:39:22.085Z,78.90
2017-04-09T06:40:21.668Z,78.90
2017-04-09T06:41:21.963Z,78.90
2017-04-09T06:42:21.547Z,78.60
2017-04-09T06:43:21.098Z,78.20
2017-04-09T06:44:22.069Z,78.70
2017-04-09T06:45:21.706Z,78.30
2017-04-09T06:46:22.005Z,78.10
2017-04-09T06:48:21.446Z,78.70
2017-04-09T06:49:21.008Z,77.70
2017-04-09T06:50:21.303Z,77.40
2017-04-09T06:51:21.032Z,77.50
2017-04-09T06:52:21.356Z,77.30
2017-04-09T06:53:20.919Z,78.00
2017-04-09T06:54:20.752Z,77.00
2017-04-09T06:55:21.160Z,77.00
2017-04-09T06:56:21.446Z,77.00
2017-04-09T06:57:21.032Z,77.00
2017-04-09T06:58:20.748Z,76.90
2017-04-09T06:59:20.490Z,76.90
2017-04-09T07:00:20.723Z,76.90
2017-04-09T07:01:20.282Z,76.60
2017-04-09T07:02:20.648Z,76.30
2017-04-09T07:03:20.492Z,75.90
2017-04-09T07:05:20.388Z,75.70
2017-04-09T07:06:19.992Z,75.70
2017-04-09T07:07:19.632Z,75.40
2017-04-09T07:08:19.204Z,75.30
2017-04-09T07:09:19.461Z,75.80
2017-04-09T07:10:19.041Z,75.60
2017-04-09T07:11:18.618Z,75.20
2017-04-09T07:12:18.921Z,74.90
2017-04-09T07:13:19.328Z,74.70
2017-04-09T07:14:19.156Z,74.50
2017-04-09T07:15:18.789Z,74.50
2017-04-09T07:16:18.357Z,74.40
2017-04-09T07:17:17.927Z,74.00
2017-04-09T07:18:17.540Z,73.70
2017-04-09T07:19:17.091Z,73.20
2017-04-09T07:20:17.323Z,72.70
2017-04-09T07:21:16.953Z,72.90
2017-04-09T07:22:16.587Z,72.90
2017-04-09T07:23:16.144Z,71.50
2017-04-09T07:24:15.773Z,72.10
2017-04-09T07:25:15.372Z,71.20
2017-04-09T07:26:14.937Z,70.80
2017-04-09T07:27:14.499Z,70.80
2017-04-09T07:28:14.110Z,70.60
2017-04-09T07:29:13.721Z,70.50
2017-04-09T07:30:13.264Z,70.20
2017-04-09T07:31:12.848Z,70.00
2017-04-09T07:32:12.408Z,69.80
2017-04-09T07:33:12.380Z,69.70
2017-04-09T07:34:11.940Z,69.40
2017-04-09T07:35:11.624Z,69.20
2017-04-09T07:36:11.919Z,68.90
2017-04-09T07:37:11.482Z,68.00
2017-04-09T07:38:11.279Z,69.00
2017-04-09T07:39:11.157Z,68.50
2017-04-09T07:40:10.848Z,68.10
2017-04-09T07:41:10.408Z,67.90
2017-04-09T07:43:10.226Z,67.80
2017-04-09T07:44:09.864Z,67.70
2017-04-09T07:45:09.462Z,67.50
2017-04-09T07:46:09.851Z,67.50
2017-04-09T07:47:09.451Z,68.30
2017-04-09T07:48:09.196Z,67.00
2017-04-09T07:49:09.060Z,67.30
2017-04-09T07:50:09.490Z,67.10
2017-04-09T07:51:09.794Z,67.00
2017-04-09T07:52:10.219Z,66.80
2017-04-09T07:53:11.009Z,65.80
2017-04-09T07:54:10.656Z,65.50
2017-04-09T07:55:11.003Z,65.50
2017-04-09T07:56:10.628Z,65.60
2017-04-09T07:57:10.333Z,65.40
2017-04-09T07:58:09.986Z,66.20
2017-04-09T07:59:09.716Z,66.30
2017-04-09T08:00:09.545Z,64.60
2017-04-09T08:01:09.395Z,64.30
2017-04-09T08:02:09.113Z,63.80
2017-04-09T08:03:08.685Z,64.00
2017-04-09T08:04:08.299Z,64.50
2017-04-09T08:05:08.041Z,64.30
2017-04-09T08:06:08.333Z,64.10
2017-04-09T08:07:07.916Z,64.50
2017-04-09T08:08:07.544Z,63.70
2017-04-09T08:09:07.261Z,62.30
2017-04-09T08:10:06.883Z,62.20
2017-04-09T08:11:06.883Z,62.30
2017-04-09T08:12:06.510Z,60.90
2017-04-09T08:13:06.105Z,63.00
2017-04-09T08:14:05.721Z,62.70
2017-04-09T08:15:05.651Z,62.90
2017-04-09T08:16:05.390Z,60.70
2017-04-09T08:17:05.086Z,60.90
2017-04-09T08:18:04.661Z,61.60
2017-04-09T08:19:04.243Z,62.20
2017-04-09T08:20:03.896Z,62.10
2017-04-09T08:21:03.485Z,61.60
2017-04-09T08:22:03.084Z,60.40
2017-04-09T08:23:02.683Z,60.80
2017-04-09T08:24:02.249Z,61.40
2017-04-09T08:25:01.964Z,61.90
2017-04-09T08:26:01.920Z,59.50
2017-04-09T08:27:01.552Z,59.30
2017-04-09T08:28:01.231Z,61.00
2017-04-09T08:29:00.981Z,61.00
2017-04-09T08:30:00.558Z,60.90
2017-04-09T08:31:00.196Z,60.40
2017-04-09T08:31:59.802Z,60.70
2017-04-09T08:32:59.410Z,59.90
2017-04-09T08:33:59.007Z,60.40
2017-04-09T08:34:58.640Z,60.30
2017-04-09T08:35:58.225Z,59.90
2017-04-09T08:36:57.807Z,59.20
2017-04-09T08:37:57.425Z,59.10
2017-04-09T08:38:57.004Z,59.60
2017-04-09T08:39:56.743Z,58.60
2017-04-09T08:40:56.474Z,59.30
2017-04-09T08:41:56.083Z,58.90
2017-04-09T08:42:55.729Z,59.10
2017-04-09T08:43:55.345Z,59.00
2017-04-09T08:44:54.988Z,58.90
2017-04-09T08:45:54.603Z,58.80
2017-04-09T08:46:54.191Z,57.70
2017-04-09T08:47:53.844Z,57.90
2017-04-09T08:48:53.470Z,57.80
2017-04-09T08:49:53.037Z,58.50
2017-04-09T08:50:53.114Z,58.10
2017-04-09T08:51:52.728Z,58.10
2017-04-09T08:52:52.342Z,58.80
2017-04-09T08:53:51.965Z,58.40
2017-04-09T08:54:51.555Z,58.20
2017-04-09T08:55:51.252Z,57.90
2017-04-09T08:56:50.818Z,56.90
2017-04-09T08:57:50.857Z,56.70
2017-04-09T08:58:50.418Z,56.30
2017-04-09T08:59:50.055Z,56.70
2017-04-09T09:00:50.055Z,56.30
2017-04-09T09:01:49.672Z,55.80
2017-04-09T09:02:49.352Z,56.20
2017-04-09T09:03:48.934Z,56.70
2017-04-09T09:04:48.966Z,56.80
2017-04-09T09:05:48.540Z,57.90
2017-04-09T09:06:48.076Z,56.70
2017-04-09T09:07:47.715Z,54.80
2017-04-09T09:08:47.377Z,54.50
2017-04-09T09:09:47.103Z,54.00
2017-04-09T09:10:46.676Z,54.30
2017-04-09T09:11:46.288Z,54.40
2017-04-09T09:12:46.567Z,54.90
2017-04-09T09:13:46.184Z,55.50
2017-04-09T09:14:45.863Z,55.10
2017-04-09T09:15:45.478Z,53.40
2017-04-09T09:16:45.044Z,53.00
2017-04-09T09:17:44.612Z,53.40
2017-04-09T09:18:44.205Z,54.00
2017-04-09T09:19:43.854Z,54.50
2017-04-09T09:20:43.423Z,55.50
2017-04-09T09:21:42.996Z,56.30
2017-04-09T09:22:42.680Z,54.70
2017-04-09T09:23:42.367Z,53.70
2017-04-09T09:24:42.004Z,53.30
2017-04-09T09:25:41.591Z,53.80
2017-04-09T09:26:41.279Z,53.90
2017-04-09T09:27:40.891Z,53.30
2017-04-09T09:28:40.629Z,54.50
2017-04-09T09:29:40.955Z,54.90
2017-04-09T09:30:40.539Z,54.20
2017-04-09T09:31:41.221Z,54.60
2017-04-09T09:32:40.799Z,52.30
2017-04-09T09:33:40.471Z,52.80
2017-04-09T09:34:40.763Z,54.50
2017-04-09T09:35:41.105Z,53.10
2017-04-09T09:37:40.589Z,53.30
2017-04-09T09:38:40.921Z,53.30
2017-04-09T09:39:40.701Z,53.40
2017-04-09T09:41:40.304Z,55.00
2017-04-09T09:43:39.877Z,52.20
2017-04-09T09:44:39.442Z,51.00
2017-04-09T09:45:39.107Z,52.70
2017-04-09T09:46:39.416Z,55.40
2017-04-09T09:47:40.596Z,54.40
2017-04-09T09:48:40.317Z,53.20
2017-04-09T09:49:39.931Z,53.60
2017-04-09T09:50:39.504Z,52.80
2017-04-09T09:51:39.084Z,53.60
2017-04-09T09:52:38.616Z,52.60
2017-04-09T09:53:38.203Z,51.80
2017-04-09T09:54:37.749Z,52.50
2017-04-09T09:55:37.439Z,52.30
2017-04-09T09:56:37.013Z,52.20
2017-04-09T09:57:37.815Z,52.70
2017-04-09T09:58:38.135Z,52.20
2017-04-09T09:59:37.896Z,52.20
2017-04-09T10:00:37.502Z,51.80
2017-04-09T10:01:37.217Z,50.70
2017-04-09T10:02:36.816Z,52.40
2017-04-09T10:03:36.383Z,52.40
2017-04-09T10:04:36.016Z,53.50
2017-04-09T10:05:35.986Z,53.60
2017-04-09T10:06:35.619Z,52.30
2017-04-09T10:07:35.655Z,52.60
2017-04-09T10:08:35.225Z,51.50
2017-04-09T10:09:34.769Z,50.40
2017-04-09T10:10:34.319Z,51.10
2017-04-09T10:11:33.936Z,52.90
2017-04-09T10:12:33.496Z,52.40
2017-04-09T10:13:33.168Z,53.60
2017-04-09T10:14:32.723Z,52.50
2017-04-09T10:15:32.282Z,52.10
2017-04-09T10:16:31.932Z,51.10
2017-04-09T10:17:31.654Z,51.30
2017-04-09T10:18:31.291Z,51.20
2017-04-09T10:19:30.863Z,52.30
2017-04-09T10:20:30.603Z,50.10
2017-04-09T10:21:30.368Z,50.80
2017-04-09T10:22:29.916Z,51.20
2017-04-09T10:23:29.820Z,52.60
2017-04-09T10:24:29.379Z,51.50
2017-04-09T10:25:29.670Z,50.80
2017-04-09T10:26:29.214Z,51.30
2017-04-09T10:27:28.808Z,51.40
2017-04-09T10:28:28.386Z,51.90
2017-04-09T10:29:27.949Z,52.00
2017-04-09T10:30:27.505Z,50.40
2017-04-09T10:31:27.148Z,47.70
2017-04-09T10:32:26.712Z,47.80
2017-04-09T10:33:26.306Z,49.70
2017-04-09T10:34:25.909Z,51.00
2017-04-09T10:35:25.468Z,49.50
2017-04-09T10:36:25.739Z,49.40
2017-04-09T10:37:25.302Z,49.60
2017-04-09T10:38:24.887Z,49.10
2017-04-09T10:39:24.503Z,47.80
2017-04-09T10:40:24.071Z,48.20
2017-04-09T10:41:23.716Z,48.20
2017-04-09T10:42:23.365Z,46.00
2017-04-09T10:43:22.923Z,46.30
2017-04-09T10:44:22.644Z,46.50
2017-04-09T10:45:22.624Z,46.30
2017-04-09T10:46:22.205Z,46.90
2017-04-09T10:47:21.764Z,48.80
2017-04-09T10:48:21.379Z,49.40
2017-04-09T10:49:20.965Z,49.70
2017-04-09T10:50:21.250Z,48.90
2017-04-09T10:51:20.891Z,49.80
2017-04-09T10:52:20.586Z,46.60
2017-04-09T10:53:20.170Z,47.60
2017-04-09T10:54:20.017Z,48.40
2017-04-09T10:55:19.610Z,47.00
2017-04-09T10:56:19.208Z,45.90
2017-04-09T10:57:18.827Z,45.30
2017-04-09T10:58:18.456Z,45.80
2017-04-09T10:59:18.003Z,45.80
2017-04-09T11:00:17.600Z,45.60
2017-04-09T11:01:17.955Z,46.00
2017-04-09T11:02:18.764Z,46.40
2017-04-09T11:03:18.369Z,45.60
2017-04-09T11:04:18.068Z,46.00
2017-04-09T11:05:17.615Z,46.90
2017-04-09T11:06:17.213Z,47.70
2017-04-09T11:07:16.975Z,48.20
2017-04-09T11:09:16.686Z,48.00
2017-04-09T11:10:17.396Z,45.90
2017-04-09T11:11:17.208Z,45.90
2017-04-09T11:12:17.592Z,45.10
2017-04-09T11:13:17.282Z,45.40
2017-04-09T11:14:17.301Z,46.00
2017-04-09T11:15:16.935Z,46.00
2017-04-09T11:16:17.275Z,47.70
2017-04-09T11:17:16.891Z,45.40
2017-04-09T11:18:16.520Z,47.00
2017-04-09T11:19:16.140Z,44.30
2017-04-09T11:20:16.508Z,43.50
2017-04-09T11:21:16.131Z,44.20
2017-04-09T11:22:15.708Z,43.70
2017-04-09T11:23:15.377Z,44.60
2017-04-09T11:24:15.688Z,44.50
2017-04-09T11:25:15.321Z,43.60
2017-04-09T11:26:14.912Z,43.70
2017-04-09T11:27:14.538Z,43.50
2017-04-09T11:28:14.189Z,43.70
2017-04-09T11:29:14.050Z,43.40
2017-04-09T11:30:13.719Z,43.90
2017-04-09T11:31:13.377Z,44.40
2017-04-09T11:32:13.699Z,43.70
2017-04-09T11:33:14.026Z,44.70
2017-04-09T11:34:13.667Z,45.50
2017-04-09T11:36:13.876Z,42.00
2017-04-09T11:37:13.508Z,42.20
2017-04-09T11:38:13.987Z,42.80
2017-04-09T11:39:13.624Z,43.70
2017-04-09T11:40:13.320Z,43.60
2017-04-09T11:41:12.984Z,44.00
2017-04-09T11:42:12.604Z,43.00
2017-04-09T11:43:12.575Z,42.10
2017-04-09T11:44:12.252Z,41.40
2017-04-09T11:45:11.851Z,41.60
2017-04-09T11:46:11.444Z,42.10
2017-04-09T11:47:11.035Z,41.80
2017-04-09T11:48:11.432Z,42.10
2017-04-09T11:49:11.027Z,40.80
2017-04-09T11:50:10.640Z,41.50
2017-04-09T11:51:11.051Z,41.30
2017-04-09T11:52:11.375Z,42.90
2017-04-09T11:53:11.728Z,40.60
2017-04-09T11:54:11.324Z,40.80
2017-04-09T11:55:10.914Z,41.00
2017-04-09T11:56:10.613Z,41.10
2017-04-09T11:57:10.239Z,41.20
2017-04-09T11:58:09.913Z,40.80
2017-04-09T11:59:09.509Z,42.70
2017-04-09T12:00:09.119Z,41.70
2017-04-09T12:01:08.881Z,42.80
2017-04-09T12:02:08.536Z,42.70
2017-04-09T12:03:08.125Z,43.00
2017-04-09T12:04:07.729Z,43.60
2017-04-09T12:05:07.389Z,41.90
2017-04-09T12:06:08.097Z,41.80
2017-04-09T12:07:07.731Z,40.90
2017-04-09T12:08:07.769Z,39.70
2017-04-09T12:09:07.383Z,40.10
2017-04-09T12:10:06.921Z,42.20
2017-04-09T12:11:06.540Z,39.30
2017-04-09T12:12:06.151Z,38.80
2017-04-09T12:13:06.491Z,39.00
2017-04-09T12:14:06.100Z,38.70
2017-04-09T12:15:05.668Z,36.80
2017-04-09T12:16:05.216Z,37.60
2017-04-09T12:17:04.800Z,37.20
2017-04-09T12:18:04.401Z,37.20
2017-04-09T12:19:03.985Z,38.10
2017-04-09T12:20:03.540Z,36.80
2017-04-09T12:21:03.182Z,37.10
2017-04-09T12:22:02.742Z,36.60
2017-04-09T12:23:02.387Z,37.30
2017-04-09T12:24:01.934Z,37.50
2017-04-09T12:25:01.491Z,37.10
2017-04-09T12:26:01.047Z,37.00
2017-04-09T12:27:00.675Z,37.30
2017-04-09T12:28:00.344Z,36.80
2017-04-09T12:28:59.916Z,37.40
2017-04-09T12:29:59.490Z,37.50
2017-04-09T12:30:59.140Z,37.40
2017-04-09T12:31:58.738Z,37.30
2017-04-09T12:32:58.326Z,37.40
2017-04-09T12:33:57.954Z,36.70
2017-04-09T12:34:57.496Z,36.60
2017-04-09T12:35:57.173Z,36.80
2017-04-09T12:36:56.724Z,36.30
2017-04-09T12:37:56.278Z,37.40
2017-04-09T12:38:55.904Z,36.20
2017-04-09T12:39:55.535Z,36.90
2017-04-09T12:40:55.090Z,36.10
2017-04-09T12:41:54.668Z,36.10
2017-04-09T12:42:54.211Z,38.40
2017-04-09T12:43:53.792Z,39.50
2017-04-09T12:44:53.359Z,37.40
2017-04-09T12:45:52.940Z,36.30
2017-04-09T12:46:52.659Z,36.80
2017-04-09T12:47:52.251Z,36.10
2017-04-09T12:48:51.999Z,35.90
2017-04-09T12:49:51.667Z,35.60
2017-04-09T12:50:51.285Z,36.40
2017-04-09T12:51:50.871Z,36.40
2017-04-09T12:52:50.892Z,36.10
2017-04-09T12:53:50.649Z,35.40
2017-04-09T12:54:50.267Z,36.10
2017-04-09T12:55:49.840Z,36.40
2017-04-09T12:56:50.155Z,36.10
2017-04-09T12:57:50.748Z,35.80
2017-04-09T12:58:50.492Z,35.50
2017-04-09T12:59:50.060Z,35.30
2017-04-09T13:00:50.879Z,35.70
2017-04-09T13:01:50.479Z,35.80
2017-04-09T13:02:50.903Z,35.00
2017-04-09T13:03:51.191Z,35.00
2017-04-09T13:04:50.930Z,35.00
2017-04-09T13:05:51.411Z,35.50
2017-04-09T13:06:51.043Z,34.70
2017-04-09T13:07:51.495Z,34.60
2017-04-09T13:08:51.209Z,34.70
2017-04-09T13:09:50.805Z,34.50
2017-04-09T13:10:50.559Z,35.10
2017-04-09T13:11:51.063Z,35.00
2017-04-09T13:12:50.667Z,34.00
2017-04-09T13:13:50.222Z,33.90
2017-04-09T13:14:49.828Z,33.40
2017-04-09T13:15:49.455Z,33.90
2017-04-09T13:16:49.185Z,33.70
2017-04-09T13:17:48.820Z,33.90
2017-04-09T13:18:48.439Z,34.80
2017-04-09T13:19:48.067Z,34.10
2017-04-09T13:20:47.679Z,34.90